Time;durP1;ratioP1;P1;durP2;ratioP2;P2;SDS_P1;SDS_P2;PMS_P1;PMS_P2;Temp;Humidity;BMP_temperature;BMP_pressure;BME280_temperature;BME280_humidity;BME280_pressure;Samples;Min_cycle;Max_cycle;Signal;HPM_P1;HPM_P2
2023/08/02 00:01:06;;;;;;;6.63;1.40;;;;;;;;;;5032666;28;20065;-79
2023/08/02 00:03:32;;;;;;;5.45;1.42;;;;;;;;;;5019759;28;20045;-79
2023/08/02 00:06:00;;;;;;;1.90;1.00;;;;;;;;;;5045167;28;20159;-81
2023/08/02 00:08:28;;;;;;;5.60;1.10;;;;;;;;;;5046195;28;20045;-80
2023/08/02 00:10:54;;;;;;;5.90;1.13;;;;;;;;;;5022815;28;20040;-79
2023/08/02 00:13:21;;;;;;;2.22;1.20;;;;;;;;;;5049121;28;20115;-80
2023/08/02 00:15:48;;;;;;;4.80;1.30;;;;;;;;;;5045105;28;20407;-77
2023/08/02 00:18:14;;;;;;;4.13;1.20;;;;;;;;;;5054428;28;20047;-80
2023/08/02 00:20:41;;;;;;;7.22;1.38;;;;;;;;;;5046480;28;20040;-80
2023/08/02 00:23:08;;;;;;;2.53;1.13;;;;;;;;;;5053619;28;20086;-82
2023/08/02 00:25:34;;;;;;;7.30;1.30;;;;;;;;;;5052151;28;20051;-78
2023/08/02 00:28:04;;;;;;;3.92;1.35;;;;;;;;;;5048600;28;20045;-79
2023/08/02 00:30:30;;;;;;;4.70;1.50;;;;;;;;;;5042118;28;20483;-79
2023/08/02 00:32:57;;;;;;;3.15;1.38;;;;;;;;;;5028211;28;20519;-80
2023/08/02 00:35:24;;;;;;;3.53;1.30;;;;;;;;;;5045449;28;20093;-80
2023/08/02 00:37:51;;;;;;;3.92;1.20;;;;;;;;;;5054192;28;20446;-79
2023/08/02 00:40:17;;;;;;;6.25;1.17;;;;;;;;;;5036639;28;20042;-79
2023/08/02 00:42:44;;;;;;;2.72;1.30;;;;;;;;;;5028361;28;20049;-80
2023/08/02 00:45:12;;;;;;;4.00;1.30;;;;;;;;;;5052981;28;20040;-79
2023/08/02 00:47:39;;;;;;;3.22;1.00;;;;;;;;;;5022733;28;20046;-79
2023/08/02 00:50:06;;;;;;;3.35;1.33;;;;;;;;;;5012587;28;20038;-79
2023/08/02 00:52:33;;;;;;;6.38;1.20;;;;;;;;;;5005485;28;20042;-81
2023/08/02 00:54:59;;;;;;;3.63;1.23;;;;;;;;;;5025548;28;20318;-78
2023/08/02 00:57:26;;;;;;;5.35;1.40;;;;;;;;;;5027406;28;20053;-80
2023/08/02 00:59:53;;;;;;;3.80;1.25;;;;;;;;;;5006597;28;20034;-80
2023/08/02 01:02:20;;;;;;;4.95;1.20;;;;;;;;;;4994826;28;20048;-80
2023/08/02 01:04:47;;;;;;;5.50;1.23;;;;;;;;;;5010548;28;20440;-79
2023/08/02 01:07:29;;;;;;;5.32;1.08;;;;;;;;;;5042357;28;20519;-80
2023/08/02 01:10:05;;;;;;;5.00;1.25;;;;;;;;;;4990133;28;20289;-78
2023/08/02 01:12:34;;;;;;;5.90;1.20;;;;;;;;;;5003219;28;20038;-79
2023/08/02 01:15:02;;;;;;;7.22;1.10;;;;;;;;;;5008287;28;20092;-80
2023/08/02 01:17:30;;;;;;;3.50;1.05;;;;;;;;;;5014605;28;20088;-81
2023/08/02 01:20:04;;;;;;;2.88;0.95;;;;;;;;;;4997774;28;20061;-79
2023/08/02 01:22:31;;;;;;;2.92;1.20;;;;;;;;;;5017624;28;20065;-80
2023/08/02 01:24:59;;;;;;;4.13;1.13;;;;;;;;;;5043463;28;20036;-81
2023/08/02 01:27:34;;;;;;;2.47;1.15;;;;;;;;;;5056320;28;20049;-79
2023/08/02 01:30:02;;;;;;;7.40;1.27;;;;;;;;;;5044378;28;20041;-79
2023/08/02 01:32:29;;;;;;;5.07;1.33;;;;;;;;;;5034369;28;20045;-79
2023/08/02 01:34:59;;;;;;;6.47;1.17;;;;;;;;;;5018223;28;20033;-80
2023/08/02 01:37:25;;;;;;;4.72;1.25;;;;;;;;;;5036659;28;20060;-80
2023/08/02 01:39:52;;;;;;;2.70;1.00;;;;;;;;;;5053318;28;20487;-79
2023/08/02 01:42:19;;;;;;;2.97;1.23;;;;;;;;;;5034985;28;20371;-79
2023/08/02 01:44:45;;;;;;;2.50;1.00;;;;;;;;;;5053486;28;20039;-79
2023/08/02 01:47:12;;;;;;;7.65;1.38;;;;;;;;;;5034730;28;20461;-78
2023/08/02 01:49:39;;;;;;;3.75;1.05;;;;;;;;;;5035945;28;20060;-80
2023/08/02 01:52:06;;;;;;;5.30;1.08;;;;;;;;;;5053336;28;20047;-79
2023/08/02 01:54:33;;;;;;;4.53;0.88;;;;;;;;;;5010331;28;20349;-80
2023/08/02 01:56:59;;;;;;;2.55;1.02;;;;;;;;;;5014620;28;20105;-80
2023/08/02 01:59:27;;;;;;;3.97;1.20;;;;;;;;;;5015888;28;20045;-81
2023/08/02 02:01:54;;;;;;;3.33;0.88;;;;;;;;;;5030877;28;20052;-78
2023/08/02 02:04:21;;;;;;;2.50;1.10;;;;;;;;;;5043047;28;20037;-79
2023/08/02 02:06:47;;;;;;;3.28;0.90;;;;;;;;;;5051932;28;20044;-80
2023/08/02 02:09:14;;;;;;;5.47;1.20;;;;;;;;;;5051121;28;20119;-80
2023/08/02 02:11:41;;;;;;;4.30;1.00;;;;;;;;;;5032535;28;20041;-78
2023/08/02 02:14:09;;;;;;;4.55;1.20;;;;;;;;;;5010841;28;20041;-80
2023/08/02 02:16:35;;;;;;;4.07;1.10;;;;;;;;;;5032497;28;20034;-80
2023/08/02 02:19:02;;;;;;;2.63;0.90;;;;;;;;;;5015552;28;20049;-78
2023/08/02 02:21:29;;;;;;;3.75;1.02;;;;;;;;;;4999392;28;20042;-79
2023/08/02 02:23:55;;;;;;;2.47;1.00;;;;;;;;;;5013413;28;20041;-79
2023/08/02 02:26:26;;;;;;;7.20;1.10;;;;;;;;;;4990330;28;20046;-80
2023/08/02 02:28:52;;;;;;;7.90;1.25;;;;;;;;;;5010562;28;20380;-80
2023/08/02 02:31:19;;;;;;;2.60;1.10;;;;;;;;;;5014916;28;20041;-80
2023/08/02 02:33:46;;;;;;;2.05;1.00;;;;;;;;;;5017330;28;20038;-81
2023/08/02 02:36:13;;;;;;;2.45;1.10;;;;;;;;;;5035312;28;20481;-81
2023/08/02 02:38:39;;;;;;;1.98;1.00;;;;;;;;;;5036896;28;20044;-80
2023/08/02 02:41:06;;;;;;;3.20;1.05;;;;;;;;;;5018108;28;20049;-81
2023/08/02 02:43:32;;;;;;;4.07;1.10;;;;;;;;;;5032553;28;20569;-79
2023/08/02 02:45:59;;;;;;;4.50;1.40;;;;;;;;;;5053272;28;20041;-81
2023/08/02 02:48:25;;;;;;;2.67;1.08;;;;;;;;;;5035900;28;20045;-80
2023/08/02 02:50:53;;;;;;;5.05;1.13;;;;;;;;;;5021230;28;21072;-81
2023/08/02 02:53:22;;;;;;;6.53;1.20;;;;;;;;;;5038458;28;20061;-80
2023/08/02 02:55:51;;;;;;;3.28;1.08;;;;;;;;;;5036128;28;20053;-78
2023/08/02 02:58:18;;;;;;;4.70;1.02;;;;;;;;;;5029989;28;20669;-82
2023/08/02 03:00:45;;;;;;;5.80;1.25;;;;;;;;;;5031031;28;20507;-80
2023/08/02 03:03:11;;;;;;;5.90;1.10;;;;;;;;;;5033765;28;20056;-79
2023/08/02 03:05:38;;;;;;;5.50;1.30;;;;;;;;;;5028993;28;20038;-80
2023/08/02 03:08:05;;;;;;;5.55;1.17;;;;;;;;;;5034453;28;20065;-82
2023/08/02 03:10:32;;;;;;;5.13;1.17;;;;;;;;;;5031569;28;20052;-82
2023/08/02 03:12:59;;;;;;;4.72;1.17;;;;;;;;;;5033356;28;20038;-81
2023/08/02 03:15:28;;;;;;;4.07;1.38;;;;;;;;;;5028304;28;20065;-78
2023/08/02 03:17:54;;;;;;;3.67;1.30;;;;;;;;;;5032039;28;20042;-79
2023/08/02 03:20:21;;;;;;;3.13;1.00;;;;;;;;;;5047358;28;20041;-78
2023/08/02 03:22:48;;;;;;;4.60;1.17;;;;;;;;;;5050729;28;20100;-81
2023/08/02 03:25:14;;;;;;;6.05;1.13;;;;;;;;;;5032555;28;20052;-82
2023/08/02 03:27:41;;;;;;;5.03;1.40;;;;;;;;;;5037487;28;20044;-80
2023/08/02 03:30:10;;;;;;;5.63;1.20;;;;;;;;;;5025043;28;20061;-79
2023/08/02 03:32:37;;;;;;;5.47;1.40;;;;;;;;;;5037862;28;20041;-78
2023/08/02 03:35:04;;;;;;;4.38;1.05;;;;;;;;;;5035988;28;20546;-81
2023/08/02 03:37:30;;;;;;;7.32;1.00;;;;;;;;;;5024582;28;20121;-80
2023/08/02 03:39:58;;;;;;;2.92;1.10;;;;;;;;;;5028221;28;20047;-79
2023/08/02 03:42:27;;;;;;;6.45;1.35;;;;;;;;;;5043610;28;20064;-80
2023/08/02 03:44:54;;;;;;;2.75;1.10;;;;;;;;;;5047625;28;20121;-78
2023/08/02 03:47:21;;;;;;;6.30;1.20;;;;;;;;;;5047793;28;20041;-78
2023/08/02 03:49:47;;;;;;;3.35;1.10;;;;;;;;;;5050203;28;20104;-78
2023/08/02 03:52:14;;;;;;;3.97;1.25;;;;;;;;;;5050315;28;20092;-79
2023/08/02 03:54:41;;;;;;;6.05;1.38;;;;;;;;;;5037020;28;20743;-80
2023/08/02 03:57:07;;;;;;;6.90;1.48;;;;;;;;;;5030142;28;20115;-80
2023/08/02 03:59:34;;;;;;;4.50;1.23;;;;;;;;;;5034012;28;20041;-80
2023/08/02 04:02:01;;;;;;;5.70;1.30;;;;;;;;;;5035975;28;20145;-80
2023/08/02 04:04:27;;;;;;;2.38;1.13;;;;;;;;;;5027713;28;20046;-80
2023/08/02 04:06:54;;;;;;;5.32;1.70;;;;;;;;;;5033142;28;20029;-79
2023/08/02 04:09:21;;;;;;;6.22;1.40;;;;;;;;;;5027651;28;20128;-79
2023/08/02 04:11:47;;;;;;;3.88;1.20;;;;;;;;;;5010667;28;20629;-79
2023/08/02 04:14:14;;;;;;;4.25;1.48;;;;;;;;;;5031542;28;20268;-80
2023/08/02 04:16:41;;;;;;;5.45;1.30;;;;;;;;;;5032491;28;20041;-78
2023/08/02 04:19:08;;;;;;;4.35;1.40;;;;;;;;;;5014973;28;20057;-79
2023/08/02 04:21:35;;;;;;;6.53;1.48;;;;;;;;;;5013735;28;20106;-80
2023/08/02 04:24:01;;;;;;;2.17;1.23;;;;;;;;;;4999456;28;20046;-79
2023/08/02 04:26:28;;;;;;;5.28;1.70;;;;;;;;;;4997892;28;20176;-79
2023/08/02 04:28:55;;;;;;;3.42;1.88;;;;;;;;;;5023527;28;20108;-79
2023/08/02 04:31:22;;;;;;;8.00;1.73;;;;;;;;;;5012064;28;20128;-80
2023/08/02 04:33:49;;;;;;;7.35;1.60;;;;;;;;;;5014029;28;20048;-80
2023/08/02 04:36:18;;;;;;;5.60;1.60;;;;;;;;;;5011409;28;20057;-79
2023/08/02 04:38:45;;;;;;;8.77;1.88;;;;;;;;;;5014118;28;20104;-81
2023/08/02 04:41:15;;;;;;;3.97;1.50;;;;;;;;;;5015481;28;20397;-80
2023/08/02 04:43:42;;;;;;;5.43;1.55;;;;;;;;;;5015479;28;20473;-80
2023/08/02 04:46:09;;;;;;;6.15;1.70;;;;;;;;;;5024529;28;20048;-80
2023/08/02 04:48:36;;;;;;;8.07;1.80;;;;;;;;;;5015884;28;20136;-83
2023/08/02 04:51:07;;;;;;;4.18;1.60;;;;;;;;;;5005081;28;20038;-80
2023/08/02 04:53:34;;;;;;;5.28;1.90;;;;;;;;;;5005260;28;20053;-80
2023/08/02 04:56:01;;;;;;;7.32;1.75;;;;;;;;;;5024985;28;20037;-80
2023/08/02 04:58:28;;;;;;;5.32;1.65;;;;;;;;;;5013057;28;20049;-80
2023/08/02 05:00:59;;;;;;;8.25;1.88;;;;;;;;;;5030456;28;20042;-80
2023/08/02 05:03:26;;;;;;;5.47;1.92;;;;;;;;;;5014015;28;20060;-79
2023/08/02 05:05:57;;;;;;;6.10;1.80;;;;;;;;;;5020815;28;20302;-79
2023/08/02 05:08:24;;;;;;;4.13;2.03;;;;;;;;;;5012038;28;20053;-79
2023/08/02 05:10:50;;;;;;;7.63;1.67;;;;;;;;;;5009235;28;20071;-79
2023/08/02 05:13:17;;;;;;;5.78;2.00;;;;;;;;;;4994699;28;20056;-79
2023/08/02 05:15:44;;;;;;;7.75;2.10;;;;;;;;;;4992005;28;20049;-81
2023/08/02 05:18:11;;;;;;;6.10;1.80;;;;;;;;;;5013483;28;20041;-79
2023/08/02 05:20:37;;;;;;;11.60;2.42;;;;;;;;;;5014601;28;20069;-79
2023/08/02 05:23:05;;;;;;;5.47;1.95;;;;;;;;;;5030300;28;20042;-79
2023/08/02 05:25:32;;;;;;;6.93;1.90;;;;;;;;;;5002881;28;20046;-77
2023/08/02 05:27:59;;;;;;;5.78;1.73;;;;;;;;;;5012799;28;20041;-79
2023/08/02 05:30:27;;;;;;;6.00;1.67;;;;;;;;;;5010137;28;20107;-78
2023/08/02 05:32:54;;;;;;;4.05;1.92;;;;;;;;;;5011222;28;20355;-78
2023/08/02 05:35:25;;;;;;;4.07;1.83;;;;;;;;;;5025984;28;20539;-79
2023/08/02 05:37:52;;;;;;;6.32;2.03;;;;;;;;;;5026181;28;20052;-79
2023/08/02 05:40:20;;;;;;;4.18;1.80;;;;;;;;;;5025778;28;20080;-78
2023/08/02 05:42:47;;;;;;;6.57;2.03;;;;;;;;;;5024345;28;20046;-80
2023/08/02 05:45:14;;;;;;;6.10;2.03;;;;;;;;;;5028362;28;20068;-78
2023/08/02 05:47:41;;;;;;;4.85;1.90;;;;;;;;;;5029181;28;20113;-78
2023/08/02 05:50:07;;;;;;;4.45;1.77;;;;;;;;;;5029517;28;20100;-79
2023/08/02 05:52:34;;;;;;;7.07;2.10;;;;;;;;;;5031139;28;20045;-78
2023/08/02 05:55:01;;;;;;;6.93;2.03;;;;;;;;;;5023038;28;20096;-78
2023/08/02 05:57:28;;;;;;;6.60;2.28;;;;;;;;;;5013988;28;20041;-80
2023/08/02 05:59:55;;;;;;;5.30;2.08;;;;;;;;;;5024831;28;20103;-78
2023/08/02 06:02:21;;;;;;;8.32;1.80;;;;;;;;;;5028297;28;20041;-79
2023/08/02 06:04:48;;;;;;;6.38;1.85;;;;;;;;;;5029512;28;20041;-78
2023/08/02 06:07:15;;;;;;;6.60;2.28;;;;;;;;;;5013671;28;20045;-79
2023/08/02 06:09:41;;;;;;;6.35;1.80;;;;;;;;;;5028247;28;20050;-79
2023/08/02 06:12:08;;;;;;;6.63;1.83;;;;;;;;;;5014929;28;20113;-80
2023/08/02 06:14:35;;;;;;;5.85;1.70;;;;;;;;;;5026164;28;20053;-80
2023/08/02 06:17:02;;;;;;;7.22;2.13;;;;;;;;;;5029109;28;20038;-80
2023/08/02 06:19:30;;;;;;;6.97;1.67;;;;;;;;;;5007408;28;20515;-78
2023/08/02 06:21:57;;;;;;;5.03;1.90;;;;;;;;;;5022508;28;20037;-78
2023/08/02 06:24:24;;;;;;;3.30;1.65;;;;;;;;;;5012215;28;20125;-78
2023/08/02 06:26:51;;;;;;;5.53;1.98;;;;;;;;;;5027763;28;20105;-79
2023/08/02 06:29:18;;;;;;;4.05;1.70;;;;;;;;;;5023715;28;20095;-80
2023/08/02 06:31:44;;;;;;;8.52;2.28;;;;;;;;;;5024363;28;20041;-79
2023/08/02 06:34:11;;;;;;;7.40;2.00;;;;;;;;;;5030464;28;20057;-80
2023/08/02 06:36:38;;;;;;;5.82;1.65;;;;;;;;;;5011267;28;20129;-78
2023/08/02 06:39:05;;;;;;;9.48;1.98;;;;;;;;;;5004243;28;20054;-79
2023/08/02 06:41:32;;;;;;;9.05;1.70;;;;;;;;;;5015316;28;20123;-78
2023/08/02 06:43:58;;;;;;;9.32;1.73;;;;;;;;;;5023776;28;20044;-79
2023/08/02 06:46:25;;;;;;;4.47;1.90;;;;;;;;;;5045343;28;20056;-78
2023/08/02 06:48:52;;;;;;;3.97;1.80;;;;;;;;;;5028615;28;20037;-79
2023/08/02 06:51:19;;;;;;;6.40;1.80;;;;;;;;;;5019647;28;20046;-78
2023/08/02 06:53:45;;;;;;;6.43;1.67;;;;;;;;;;5029906;28;20059;-79
2023/08/02 06:56:13;;;;;;;6.13;1.90;;;;;;;;;;5013472;28;20092;-79
2023/08/02 06:58:40;;;;;;;4.32;1.45;;;;;;;;;;5030287;28;20103;-80
2023/08/02 07:01:16;;;;;;;3.60;1.58;;;;;;;;;;5033028;28;20038;-80
2023/08/02 07:03:44;;;;;;;4.80;1.40;;;;;;;;;;5030207;28;20065;-77
2023/08/02 07:06:12;;;;;;;4.97;1.73;;;;;;;;;;5031198;28;20079;-80
2023/08/02 07:08:39;;;;;;;7.03;1.50;;;;;;;;;;5032588;28;20045;-80
2023/08/02 07:11:06;;;;;;;2.72;1.40;;;;;;;;;;5032550;28;20045;-79
2023/08/02 07:13:36;;;;;;;3.83;1.42;;;;;;;;;;5030031;28;20139;-79
2023/08/02 07:16:04;;;;;;;3.97;1.70;;;;;;;;;;5027673;28;20049;-79
2023/08/02 07:18:31;;;;;;;4.32;1.52;;;;;;;;;;5040240;28;20053;-79
2023/08/02 07:21:05;;;;;;;2.47;1.42;;;;;;;;;;5030548;28;20125;-78
2023/08/02 07:23:32;;;;;;;4.30;1.42;;;;;;;;;;5014097;28;20045;-79
2023/08/02 07:25:58;;;;;;;3.75;1.50;;;;;;;;;;5042175;28;20041;-77
2023/08/02 07:28:25;;;;;;;2.80;1.20;;;;;;;;;;5029882;28;20667;-79
2023/08/02 07:30:52;;;;;;;6.82;1.60;;;;;;;;;;5031648;28;20113;-78
2023/08/02 07:33:19;;;;;;;7.32;1.70;;;;;;;;;;5033603;28;20053;-79
2023/08/02 07:35:46;;;;;;;4.95;1.33;;;;;;;;;;5030850;28;20048;-79
2023/08/02 07:38:14;;;;;;;4.20;1.45;;;;;;;;;;5016847;28;20410;-79
2023/08/02 07:40:43;;;;;;;3.92;1.38;;;;;;;;;;5029642;28;20041;-79
2023/08/02 07:43:10;;;;;;;5.35;1.80;;;;;;;;;;5032234;28;20117;-79
2023/08/02 07:45:36;;;;;;;5.32;1.35;;;;;;;;;;5030596;28;20144;-79
2023/08/02 07:48:03;;;;;;;3.00;1.40;;;;;;;;;;5030966;28;20037;-78
2023/08/02 07:50:31;;;;;;;4.65;1.33;;;;;;;;;;5025039;28;20503;-79
2023/08/02 07:52:58;;;;;;;3.13;1.40;;;;;;;;;;5033289;28;20096;-79
2023/08/02 07:55:24;;;;;;;3.92;1.35;;;;;;;;;;5008245;28;20124;-79
2023/08/02 07:57:51;;;;;;;4.50;1.52;;;;;;;;;;5013244;28;20534;-79
2023/08/02 08:00:18;;;;;;;4.93;1.33;;;;;;;;;;5010020;28;20131;-79
2023/08/02 08:02:45;;;;;;;3.30;1.58;;;;;;;;;;5034756;28;20129;-79
2023/08/02 08:05:11;;;;;;;4.88;1.65;;;;;;;;;;5010365;28;20046;-78
2023/08/02 08:07:38;;;;;;;5.03;1.40;;;;;;;;;;4988287;28;20519;-79
2023/08/02 08:10:05;;;;;;;2.80;1.30;;;;;;;;;;5039990;28;20041;-78
2023/08/02 08:12:32;;;;;;;4.25;1.70;;;;;;;;;;5026242;28;20061;-78
2023/08/02 08:14:59;;;;;;;5.00;1.45;;;;;;;;;;5025598;28;25151;-78
2023/08/02 08:17:25;;;;;;;3.65;1.60;;;;;;;;;;5010533;28;20041;-78
2023/08/02 08:19:52;;;;;;;3.25;1.55;;;;;;;;;;5013584;28;20069;-79
2023/08/02 08:22:21;;;;;;;2.90;1.35;;;;;;;;;;5011658;28;20462;-78
2023/08/02 08:24:48;;;;;;;3.60;1.73;;;;;;;;;;5027838;28;20386;-79
2023/08/02 08:27:14;;;;;;;4.32;1.30;;;;;;;;;;5027823;28;20351;-78
2023/08/02 08:29:41;;;;;;;3.15;1.33;;;;;;;;;;5029738;28;20499;-78
2023/08/02 08:32:08;;;;;;;3.40;1.38;;;;;;;;;;5028842;28;20388;-79
2023/08/02 08:34:35;;;;;;;3.47;1.27;;;;;;;;;;5030518;28;20056;-79
2023/08/02 08:37:02;;;;;;;1.80;1.20;;;;;;;;;;5008509;28;20056;-79
2023/08/02 08:39:29;;;;;;;3.42;1.50;;;;;;;;;;5021197;28;20520;-78
2023/08/02 08:41:56;;;;;;;3.80;1.50;;;;;;;;;;5027365;28;20063;-76
2023/08/02 08:44:23;;;;;;;2.97;1.30;;;;;;;;;;5025786;28;20046;-79
2023/08/02 08:46:50;;;;;;;2.40;1.23;;;;;;;;;;5027531;28;20049;-79
2023/08/02 08:49:17;;;;;;;3.38;1.50;;;;;;;;;;5022786;28;20069;-78
2023/08/02 08:51:49;;;;;;;2.33;1.20;;;;;;;;;;5009216;28;20045;-79
2023/08/02 08:54:17;;;;;;;3.47;1.50;;;;;;;;;;4992764;28;20100;-78
2023/08/02 08:56:44;;;;;;;3.65;1.48;;;;;;;;;;5006167;28;20088;-79
2023/08/02 08:59:11;;;;;;;3.75;1.50;;;;;;;;;;5011892;28;20136;-79
2023/08/02 09:01:38;;;;;;;5.18;1.40;;;;;;;;;;5028296;28;20070;-78
2023/08/02 09:04:06;;;;;;;2.80;1.50;;;;;;;;;;5033068;28;20184;-79
2023/08/02 09:06:34;;;;;;;2.83;1.48;;;;;;;;;;5015356;28;20048;-78
2023/08/02 09:09:01;;;;;;;5.38;1.33;;;;;;;;;;5031864;28;20041;-79
2023/08/02 09:11:28;;;;;;;2.92;1.40;;;;;;;;;;5033562;28;20052;-75
2023/08/02 09:14:11;;;;;;;4.50;1.60;;;;;;;;;;5043424;28;20037;-78
2023/08/02 09:16:57;;;;;;;6.32;1.60;;;;;;;;;;5044138;28;20052;-77
2023/08/02 09:19:27;;;;;;;3.80;1.48;;;;;;;;;;5059746;28;20049;-79
2023/08/02 09:22:05;;;;;;;4.15;1.70;;;;;;;;;;5058999;28;20144;-79
2023/08/02 09:24:35;;;;;;;4.43;1.30;;;;;;;;;;5030706;28;20037;-79
2023/08/02 09:27:01;;;;;;;3.38;1.42;;;;;;;;;;5013697;28;20033;-78
2023/08/02 09:29:45;;;;;;;3.55;1.40;;;;;;;;;;5028453;28;20469;-79
2023/08/02 09:32:12;;;;;;;4.75;1.50;;;;;;;;;;5012631;28;20444;-81
2023/08/02 09:34:45;;;;;;;2.08;1.10;;;;;;;;;;5026762;28;20114;-79
2023/08/02 09:37:12;;;;;;;5.30;1.75;;;;;;;;;;5016961;28;20038;-77
2023/08/02 09:39:42;;;;;;;2.20;1.40;;;;;;;;;;5008965;28;20046;-79
2023/08/02 09:42:13;;;;;;;4.95;1.42;;;;;;;;;;5030932;28;20055;-78
2023/08/02 09:44:43;;;;;;;2.92;1.23;;;;;;;;;;5017177;28;20519;-80
2023/08/02 09:47:12;;;;;;;5.78;1.63;;;;;;;;;;5009223;28;20073;-79
2023/08/02 09:49:39;;;;;;;2.80;1.15;;;;;;;;;;5013287;28;20061;-80
2023/08/02 09:52:07;;;;;;;5.82;1.45;;;;;;;;;;5008867;28;20052;-79
2023/08/02 09:54:34;;;;;;;3.55;1.20;;;;;;;;;;4989364;28;20252;-81
2023/08/02 09:57:02;;;;;;;3.78;1.25;;;;;;;;;;5032218;28;20446;-79
2023/08/02 09:59:29;;;;;;;5.68;1.33;;;;;;;;;;5031692;28;20053;-78
2023/08/02 10:01:57;;;;;;;3.42;1.35;;;;;;;;;;5012794;28;20049;-79
2023/08/02 10:04:24;;;;;;;3.30;1.33;;;;;;;;;;5010822;28;20145;-78
2023/08/02 10:07:02;;;;;;;4.03;1.50;;;;;;;;;;5008484;28;20133;-79
2023/08/02 10:09:30;;;;;;;5.32;1.40;;;;;;;;;;5004616;28;20046;-79
2023/08/02 10:12:08;;;;;;;5.13;1.40;;;;;;;;;;5012227;28;20053;-79
2023/08/02 10:14:35;;;;;;;2.45;1.20;;;;;;;;;;5025875;28;20057;-80
2023/08/02 10:17:03;;;;;;;2.40;1.25;;;;;;;;;;5023274;28;20049;-78
2023/08/02 10:19:30;;;;;;;2.53;1.40;;;;;;;;;;5010708;28;20571;-79
2023/08/02 10:21:57;;;;;;;2.92;1.30;;;;;;;;;;5011255;28;20435;-78
2023/08/02 10:24:25;;;;;;;3.65;1.40;;;;;;;;;;5027164;28;20049;-77
2023/08/02 10:27:02;;;;;;;3.63;1.50;;;;;;;;;;5026944;28;20072;-79
2023/08/02 10:29:29;;;;;;;2.70;1.30;;;;;;;;;;5019755;28;20340;-79
2023/08/02 10:31:55;;;;;;;2.90;1.27;;;;;;;;;;4998926;28;20053;-79
2023/08/02 10:34:34;;;;;;;2.97;1.20;;;;;;;;;;5010466;28;20103;-79
2023/08/02 10:37:02;;;;;;;2.47;1.15;;;;;;;;;;5023333;28;20049;-79
2023/08/02 10:39:58;;;;;;;4.55;1.40;;;;;;;;;;5009752;28;20049;-77
2023/08/02 10:42:26;;;;;;;3.95;1.65;;;;;;;;;;5028993;28;20053;-79
2023/08/02 10:44:56;;;;;;;2.20;1.20;;;;;;;;;;5032738;28;20511;-78
2023/08/02 10:47:30;;;;;;;3.35;1.50;;;;;;;;;;5006350;28;20223;-79
2023/08/02 10:49:58;;;;;;;2.83;1.30;;;;;;;;;;5047282;28;20041;-79
2023/08/02 10:52:32;;;;;;;4.93;1.10;;;;;;;;;;5033542;28;20166;-78
2023/08/02 10:55:25;;;;;;;3.42;1.08;;;;;;;;;;5030708;28;20049;-79
2023/08/02 10:57:55;;;;;;;3.42;1.30;;;;;;;;;;5049298;28;20052;-79
2023/08/02 11:00:26;;;;;;;4.30;1.33;;;;;;;;;;5028710;28;20064;-80
2023/08/02 11:02:53;;;;;;;3.95;2.05;;;;;;;;;;5033962;28;20459;-78
2023/08/02 11:05:43;;;;;;;3.92;1.30;;;;;;;;;;5034460;28;20045;-78
2023/08/02 11:08:10;;;;;;;2.45;1.25;;;;;;;;;;4985157;28;20129;-80
2023/08/02 11:10:46;;;;;;;2.88;1.30;;;;;;;;;;5018567;28;20045;-80
2023/08/02 11:13:13;;;;;;;4.07;1.58;;;;;;;;;;5019265;28;20169;-79
2023/08/02 11:15:40;;;;;;;3.30;1.20;;;;;;;;;;5014314;28;20054;-79
2023/08/02 11:18:07;;;;;;;2.70;1.50;;;;;;;;;;5015453;28;20041;-78
2023/08/02 11:20:37;;;;;;;2.50;1.15;;;;;;;;;;5013641;28;20128;-79
2023/08/02 11:23:20;;;;;;;4.35;1.70;;;;;;;;;;5016405;28;20414;-79
2023/08/02 11:25:47;;;;;;;2.55;1.48;;;;;;;;;;5012098;28;20045;-79
2023/08/02 11:28:39;;;;;;;2.40;1.13;;;;;;;;;;5032730;28;20148;-79
2023/08/02 11:31:05;;;;;;;2.90;1.20;;;;;;;;;;5031042;28;20064;-78
2023/08/02 11:33:32;;;;;;;3.00;1.30;;;;;;;;;;5030676;28;20048;-79
2023/08/02 11:35:59;;;;;;;3.13;1.05;;;;;;;;;;5014235;28;20045;-78
2023/08/02 11:38:26;;;;;;;3.63;1.42;;;;;;;;;;4999755;28;20054;-81
2023/08/02 11:40:52;;;;;;;3.13;1.40;;;;;;;;;;5030240;28;20046;-79
2023/08/02 11:43:32;;;;;;;4.43;1.60;;;;;;;;;;5010469;28;20038;-78
2023/08/02 11:45:58;;;;;;;2.72;1.10;;;;;;;;;;5009365;28;20544;-78
2023/08/02 11:48:25;;;;;;;2.85;1.13;;;;;;;;;;5023037;28;20042;-79
2023/08/02 11:50:53;;;;;;;3.33;1.30;;;;;;;;;;5029858;28;20056;-79
2023/08/02 11:53:20;;;;;;;2.95;1.30;;;;;;;;;;5031563;28;20049;-78
2023/08/02 11:55:47;;;;;;;2.80;1.33;;;;;;;;;;5009734;28;20046;-79
2023/08/02 11:58:14;;;;;;;2.08;1.10;;;;;;;;;;5032860;28;20129;-79
2023/08/02 12:00:41;;;;;;;4.95;1.35;;;;;;;;;;4997147;28;20065;-79
2023/08/02 12:03:11;;;;;;;5.25;1.50;;;;;;;;;;5021840;28;20504;-79
2023/08/02 12:05:39;;;;;;;2.92;1.40;;;;;;;;;;5032347;28;20392;-79
2023/08/02 12:08:17;;;;;;;1.90;1.08;;;;;;;;;;5036510;28;20167;-78
2023/08/02 12:10:46;;;;;;;3.20;1.30;;;;;;;;;;5052267;28;20061;-80
2023/08/02 12:13:17;;;;;;;3.00;1.00;;;;;;;;;;5034685;28;20048;-79
2023/08/02 12:15:59;;;;;;;2.25;1.08;;;;;;;;;;5032484;28;20041;-78
2023/08/02 12:18:26;;;;;;;1.90;0.75;;;;;;;;;;5029969;28;20121;-81
2023/08/02 12:20:53;;;;;;;4.50;1.25;;;;;;;;;;5031121;28;20290;-81
2023/08/02 12:23:32;;;;;;;2.28;1.00;;;;;;;;;;5033242;28;20041;-79
2023/08/02 12:25:59;;;;;;;3.33;1.20;;;;;;;;;;5027755;28;20119;-79
2023/08/02 12:28:41;;;;;;;2.65;1.30;;;;;;;;;;5027063;28;20052;-80
2023/08/02 12:31:08;;;;;;;2.78;0.93;;;;;;;;;;5024819;28;20130;-79
2023/08/02 12:33:34;;;;;;;2.67;0.98;;;;;;;;;;5009323;28;20137;-79
2023/08/02 12:36:03;;;;;;;3.45;1.05;;;;;;;;;;5025151;28;20046;-80
2023/08/02 12:38:30;;;;;;;3.10;1.10;;;;;;;;;;4992119;28;20121;-79
2023/08/02 12:40:57;;;;;;;2.22;1.02;;;;;;;;;;5009987;28;20112;-79
2023/08/02 12:43:25;;;;;;;1.95;1.13;;;;;;;;;;5012706;28;20054;-81
2023/08/02 12:45:53;;;;;;;2.20;1.25;;;;;;;;;;5010404;28;20072;-79
2023/08/02 12:48:19;;;;;;;2.17;1.20;;;;;;;;;;5023082;28;20041;-79
2023/08/02 12:50:47;;;;;;;2.60;1.30;;;;;;;;;;5045452;28;20068;-79
2023/08/02 12:53:13;;;;;;;2.72;1.30;;;;;;;;;;5028619;28;20045;-79
2023/08/02 12:55:40;;;;;;;3.58;1.00;;;;;;;;;;5030188;28;20049;-80
2023/08/02 12:58:07;;;;;;;2.08;1.25;;;;;;;;;;5031380;28;20065;-79
2023/08/02 13:00:34;;;;;;;1.95;1.50;;;;;;;;;;5032216;28;20506;-78
2023/08/02 13:03:01;;;;;;;2.88;1.60;;;;;;;;;;5028859;28;20087;-80
2023/08/02 13:05:28;;;;;;;3.67;1.67;;;;;;;;;;5029311;28;20121;-77
2023/08/02 13:07:55;;;;;;;2.15;1.40;;;;;;;;;;5030112;28;20095;-80
2023/08/02 13:10:21;;;;;;;3.35;1.60;;;;;;;;;;5030183;28;20158;-79
2023/08/02 13:12:48;;;;;;;3.58;1.80;;;;;;;;;;5031352;28;20097;-79
2023/08/02 13:15:15;;;;;;;4.50;1.60;;;;;;;;;;5015671;28;20072;-77
2023/08/02 13:17:46;;;;;;;3.20;1.60;;;;;;;;;;5013586;28;20096;-80
2023/08/02 13:20:14;;;;;;;2.65;1.75;;;;;;;;;;5033610;28;20096;-80
2023/08/02 13:22:41;;;;;;;5.70;1.70;;;;;;;;;;5010069;28;20046;-80
2023/08/02 13:25:08;;;;;;;6.53;1.85;;;;;;;;;;5008305;28;20056;-81
2023/08/02 13:27:35;;;;;;;5.35;2.00;;;;;;;;;;5015793;28;20488;-82
2023/08/02 13:30:02;;;;;;;4.72;2.10;;;;;;;;;;4998589;28;20037;-81
2023/08/02 13:32:33;;;;;;;4.13;2.20;;;;;;;;;;5043478;28;20049;-80
2023/08/02 13:35:01;;;;;;;3.83;1.80;;;;;;;;;;5033748;28;20033;-80
2023/08/02 13:37:34;;;;;;;4.07;1.80;;;;;;;;;;5022016;28;20053;-80
2023/08/02 13:40:01;;;;;;;3.33;1.52;;;;;;;;;;5011944;28;20107;-79
2023/08/02 13:42:28;;;;;;;3.28;1.90;;;;;;;;;;4997181;28;20554;-80
2023/08/02 13:44:55;;;;;;;3.42;1.52;;;;;;;;;;5012546;28;20056;-81
2023/08/02 13:47:21;;;;;;;3.00;1.73;;;;;;;;;;4997220;28;20076;-80
2023/08/02 13:49:49;;;;;;;2.95;1.85;;;;;;;;;;4999094;28;20049;-80
2023/08/02 13:52:15;;;;;;;3.20;1.70;;;;;;;;;;5010822;28;20072;-79
2023/08/02 13:54:42;;;;;;;2.05;1.58;;;;;;;;;;5011260;28;20298;-78
2023/08/02 13:57:09;;;;;;;4.05;1.65;;;;;;;;;;5010652;28;20097;-79
2023/08/02 13:59:38;;;;;;;1.95;1.23;;;;;;;;;;5024370;28;20107;-80
2023/08/02 14:02:06;;;;;;;3.70;1.38;;;;;;;;;;5005909;28;20069;-80
2023/08/02 14:04:33;;;;;;;2.78;1.50;;;;;;;;;;5004492;28;20050;-79
2023/08/02 14:07:00;;;;;;;2.10;1.30;;;;;;;;;;5009514;28;20357;-80
2023/08/02 14:09:27;;;;;;;3.05;1.10;;;;;;;;;;5013341;28;20268;-80
2023/08/02 14:11:54;;;;;;;3.55;1.08;;;;;;;;;;5013240;28;20041;-78
2023/08/02 14:14:21;;;;;;;2.63;1.10;;;;;;;;;;5000154;28;20049;-79
2023/08/02 14:16:47;;;;;;;1.63;0.88;;;;;;;;;;4999458;28;20639;-80
2023/08/02 14:19:15;;;;;;;2.00;0.95;;;;;;;;;;5011122;28;20056;-81
2023/08/02 14:21:41;;;;;;;2.28;0.90;;;;;;;;;;4993994;28;20053;-79
2023/08/02 14:24:08;;;;;;;2.75;0.88;;;;;;;;;;5033761;28;20055;-79
2023/08/02 14:26:35;;;;;;;3.72;1.00;;;;;;;;;;5027248;28;20441;-78
2023/08/02 14:29:02;;;;;;;1.65;0.90;;;;;;;;;;5030212;28;20044;-79
2023/08/02 14:31:29;;;;;;;2.72;1.25;;;;;;;;;;5046152;28;20613;-79
2023/08/02 14:33:56;;;;;;;1.73;1.08;;;;;;;;;;5025408;28;20123;-81
2023/08/02 14:36:22;;;;;;;1.42;1.10;;;;;;;;;;5034489;28;20053;-82
2023/08/02 14:38:50;;;;;;;1.80;1.10;;;;;;;;;;5033620;28;20120;-80
2023/08/02 14:41:16;;;;;;;1.65;1.08;;;;;;;;;;5050560;28;20045;-78
2023/08/02 14:43:43;;;;;;;2.35;1.10;;;;;;;;;;5032285;28;20110;-79
2023/08/02 14:46:10;;;;;;;2.22;1.00;;;;;;;;;;5030181;28;20045;-78
2023/08/02 14:48:37;;;;;;;2.97;1.13;;;;;;;;;;5027012;28;20144;-79